Leeds, Alabama
Current Conditions -  °F | °C
As of 6:53 PM on Friday 19 Dec 2014 (Local Time) from KBHM Reporting Station
Light Rain Light Rain  
Wind Chill:   Ceiling: 7000
Heat Index:   Visibility: 8mi
Dew Point:   Wind: 0mph
Humidity: 82%   Direction: NA
Pressure: 30.21"   Gusts: NA
Location:  33.54°N, 86.54°W
Report Text: KBHM 200053Z 00000KT 8SM -RA OVC070 06/03 A3021 RMK AO2 RAB20 SLP231 P0000 T00610033
Loading
Personal Weather Stations






























Interactive Weather Map New forecast layout! Learn more

10-Day Weather Forecast

Advertisements
Track Severe Weather on mobile